Time;durP1;ratioP1;P1;durP2;ratioP2;P2;SDS_P1;SDS_P2;PMS_P1;PMS_P2;Temp;Humidity;BMP_temperature;BMP_pressure;BME280_temperature;BME280_humidity;BME280_pressure;Samples;Min_cycle;Max_cycle;Signal;HPM_P1;HPM_P2
2022/07/26 00:02:00;;;;;;;17.20;4.43;;;18.60;99.90;;;;;;5023638;28;20049;-51
2022/07/26 00:04:26;;;;;;;17.88;4.05;;;18.50;99.90;;;;;;5015279;28;20124;-44
2022/07/26 00:06:52;;;;;;;15.10;4.00;;;18.50;99.90;;;;;;5004086;28;20501;-48
2022/07/26 00:09:18;;;;;;;17.55;4.22;;;18.50;99.90;;;;;;5010920;28;20165;-47
2022/07/26 00:11:43;;;;;;;15.93;4.20;;;18.50;99.90;;;;;;5004851;28;20053;-48
2022/07/26 00:14:09;;;;;;;15.50;3.67;;;18.50;99.90;;;;;;5022798;28;20056;-48
2022/07/26 00:16:36;;;;;;;14.32;4.13;;;18.50;99.90;;;;;;5023727;28;20041;-52
2022/07/26 00:19:02;;;;;;;16.70;4.28;;;18.50;99.90;;;;;;5003152;28;20046;-47
2022/07/26 00:21:29;;;;;;;15.90;4.28;;;18.40;99.90;;;;;;5008182;28;20100;-48
2022/07/26 00:23:55;;;;;;;11.30;3.47;;;18.50;99.90;;;;;;5022994;28;20428;-48
2022/07/26 00:26:21;;;;;;;14.15;3.72;;;18.50;99.90;;;;;;5023336;28;20398;-47
2022/07/26 00:28:47;;;;;;;14.77;3.58;;;18.40;99.90;;;;;;5005092;28;20049;-43
2022/07/26 00:31:13;;;;;;;14.30;3.92;;;18.40;99.90;;;;;;4985631;28;20149;-51
2022/07/26 00:33:39;;;;;;;11.57;3.85;;;18.40;99.90;;;;;;5002853;28;20088;-47
2022/07/26 00:36:06;;;;;;;14.13;4.50;;;18.40;99.90;;;;;;5006569;28;20580;-51
2022/07/26 00:38:32;;;;;;;13.13;4.03;;;18.40;99.90;;;;;;5024245;28;20064;-51
2022/07/26 00:40:58;;;;;;;11.07;3.50;;;18.30;99.90;;;;;;5022614;28;20057;-52
2022/07/26 00:43:24;;;;;;;9.82;3.08;;;18.30;99.90;;;;;;5022727;28;20377;-49
2022/07/26 00:45:50;;;;;;;10.80;2.92;;;18.40;99.90;;;;;;5022400;28;20516;-48
2022/07/26 00:48:16;;;;;;;11.38;3.10;;;18.30;99.90;;;;;;5022939;28;20550;-48
2022/07/26 00:50:42;;;;;;;12.13;4.25;;;18.30;99.90;;;;;;5021527;28;20041;-50
2022/07/26 00:53:08;;;;;;;9.65;3.03;;;18.30;99.90;;;;;;4999359;28;20104;-47
2022/07/26 00:55:34;;;;;;;10.77;2.85;;;18.20;99.90;;;;;;5019783;28;20511;-50
2022/07/26 00:58:00;;;;;;;8.57;2.85;;;18.20;99.90;;;;;;5006200;28;20121;-48
2022/07/26 01:00:27;;;;;;;8.73;3.20;;;18.20;99.90;;;;;;4999479;28;20468;-50
2022/07/26 01:02:54;;;;;;;7.88;3.28;;;18.20;99.90;;;;;;4998820;28;20058;-47
2022/07/26 01:05:21;;;;;;;7.68;2.80;;;18.20;99.90;;;;;;5003962;28;20072;-52
2022/07/26 01:07:48;;;;;;;7.78;2.75;;;18.20;99.90;;;;;;5004602;28;20056;-45
2022/07/26 01:10:14;;;;;;;5.22;2.95;;;18.20;99.90;;;;;;5009731;28;20053;-48
2022/07/26 01:12:43;;;;;;;7.15;3.40;;;18.20;99.90;;;;;;5000294;28;20050;-51
2022/07/26 01:15:11;;;;;;;16.77;4.53;;;18.20;99.90;;;;;;5015187;28;20053;-50
2022/07/26 01:17:37;;;;;;;14.80;4.22;;;18.20;99.90;;;;;;5023133;28;20049;-48
2022/07/26 01:20:04;;;;;;;10.27;4.50;;;18.20;99.90;;;;;;5004660;28;20068;-50
2022/07/26 01:22:30;;;;;;;8.75;4.57;;;18.20;99.90;;;;;;5022594;28;20126;-47
2022/07/26 01:24:56;;;;;;;8.75;4.20;;;18.10;99.90;;;;;;5000129;28;20049;-51
2022/07/26 01:27:22;;;;;;;6.55;4.70;;;18.00;99.90;;;;;;5001854;28;20050;-49
2022/07/26 01:29:50;;;;;;;8.57;5.30;;;18.00;99.90;;;;;;5002361;28;20451;-48
2022/07/26 01:32:17;;;;;;;7.28;4.47;;;17.90;99.90;;;;;;5020872;28;20120;-49
2022/07/26 01:34:43;;;;;;;8.70;4.03;;;17.90;99.90;;;;;;5001183;28;20409;-48
2022/07/26 01:37:08;;;;;;;9.55;4.38;;;17.90;99.90;;;;;;5000957;28;20042;-45
2022/07/26 01:39:34;;;;;;;7.20;4.50;;;17.90;99.90;;;;;;4984542;28;20049;-49
2022/07/26 01:42:00;;;;;;;9.13;4.38;;;17.80;99.90;;;;;;5002608;28;20053;-49
2022/07/26 01:44:26;;;;;;;8.02;4.75;;;17.80;99.90;;;;;;4998366;28;20580;-48
2022/07/26 01:46:51;;;;;;;7.35;4.85;;;17.90;99.90;;;;;;5010369;28;20065;-50
2022/07/26 01:49:17;;;;;;;6.50;4.68;;;17.90;99.90;;;;;;5001794;28;20152;-46
2022/07/26 01:51:43;;;;;;;8.98;4.45;;;17.80;99.90;;;;;;5001782;28;20140;-49
2022/07/26 01:54:09;;;;;;;10.30;5.18;;;17.80;99.90;;;;;;4999957;28;20576;-50
2022/07/26 01:56:34;;;;;;;8.80;4.32;;;17.80;99.90;;;;;;4977440;28;20138;-50
2022/07/26 01:59:00;;;;;;;9.35;4.88;;;17.80;99.90;;;;;;4983848;28;20095;-48
2022/07/26 02:01:26;;;;;;;10.30;5.00;;;17.80;99.90;;;;;;5001972;28;20402;-50
2022/07/26 02:03:52;;;;;;;9.93;5.20;;;17.80;99.90;;;;;;4983675;28;20415;-50
2022/07/26 02:06:17;;;;;;;11.55;4.38;;;17.80;99.90;;;;;;4998459;28;20129;-47
2022/07/26 02:08:43;;;;;;;6.22;4.32;;;17.80;99.90;;;;;;5004074;28;20049;-50
2022/07/26 02:11:09;;;;;;;9.38;5.05;;;17.80;99.90;;;;;;5002555;28;20514;-44
2022/07/26 02:13:39;;;;;;;9.68;4.90;;;17.70;99.90;;;;;;5020904;28;20045;-45
2022/07/26 02:16:08;;;;;;;12.20;5.50;;;17.80;99.90;;;;;;5001271;28;20131;-49
2022/07/26 02:18:36;;;;;;;8.73;4.55;;;17.70;99.90;;;;;;4998863;28;20088;-47
2022/07/26 02:21:03;;;;;;;9.02;4.50;;;17.70;99.90;;;;;;5001474;28;20409;-49
2022/07/26 02:23:29;;;;;;;8.93;4.90;;;17.70;99.90;;;;;;5001459;28;20495;-47
2022/07/26 02:25:55;;;;;;;6.90;4.05;;;17.80;99.90;;;;;;4996373;28;20053;-50
2022/07/26 02:28:22;;;;;;;11.18;5.05;;;17.70;99.90;;;;;;4999598;28;20107;-49
2022/07/26 02:30:48;;;;;;;10.95;4.55;;;17.70;99.90;;;;;;5013077;28;20102;-48
2022/07/26 02:33:14;;;;;;;11.25;4.65;;;17.70;99.90;;;;;;4985859;28;20060;-49
2022/07/26 02:35:40;;;;;;;4.95;3.67;;;17.70;99.90;;;;;;5002324;28;20061;-50
2022/07/26 02:38:08;;;;;;;11.05;4.03;;;17.60;99.90;;;;;;4998556;28;20077;-48
2022/07/26 02:40:36;;;;;;;10.85;4.10;;;17.60;99.90;;;;;;4983062;28;20089;-48
2022/07/26 02:43:02;;;;;;;9.50;4.07;;;17.60;99.90;;;;;;4982891;28;20468;-48
2022/07/26 02:45:28;;;;;;;6.80;3.60;;;17.50;99.90;;;;;;5000375;28;20524;-46
2022/07/26 02:47:55;;;;;;;5.97;3.22;;;17.40;99.90;;;;;;5001224;28;20192;-47
2022/07/26 02:50:23;;;;;;;9.70;3.65;;;17.40;99.90;;;;;;5001978;28;20041;-49
2022/07/26 02:52:50;;;;;;;15.02;3.90;;;17.40;99.90;;;;;;5020961;28;20049;-43
2022/07/26 02:55:21;;;;;;;9.63;4.03;;;17.30;99.90;;;;;;5003178;28;20056;-46
2022/07/26 02:57:47;;;;;;;7.85;4.20;;;17.40;99.90;;;;;;5007208;28;20054;-47
2022/07/26 03:00:16;;;;;;;9.52;3.47;;;17.40;99.90;;;;;;4999892;28;20053;-48
2022/07/26 03:02:42;;;;;;;12.13;3.22;;;17.30;99.90;;;;;;4982685;28;20480;-46
2022/07/26 03:05:08;;;;;;;12.85;3.80;;;17.30;99.90;;;;;;4983599;28;20203;-46
2022/07/26 03:07:34;;;;;;;9.80;2.97;;;17.30;99.90;;;;;;5000859;28;20050;-48
2022/07/26 03:10:00;;;;;;;13.82;3.90;;;17.30;99.90;;;;;;5001646;28;20053;-48
2022/07/26 03:12:26;;;;;;;10.57;3.65;;;17.30;99.90;;;;;;5001041;28;20053;-47
2022/07/26 03:14:52;;;;;;;7.10;3.05;;;17.30;99.90;;;;;;4994473;28;20120;-49
2022/07/26 03:17:18;;;;;;;9.13;3.28;;;17.30;99.90;;;;;;5000503;28;20627;-47
2022/07/26 03:19:44;;;;;;;7.28;3.60;;;17.30;99.90;;;;;;4999269;28;20189;-48
2022/07/26 03:22:10;;;;;;;6.68;3.22;;;17.30;99.90;;;;;;5000113;28;20569;-48
2022/07/26 03:24:36;;;;;;;9.23;3.30;;;17.30;99.90;;;;;;5000895;28;20128;-48
2022/07/26 03:27:03;;;;;;;10.00;3.10;;;17.30;99.90;;;;;;4982328;28;20062;-48
2022/07/26 03:29:28;;;;;;;7.25;3.10;;;17.30;99.90;;;;;;5000293;28;20105;-47
2022/07/26 03:31:54;;;;;;;6.32;2.55;;;17.20;99.90;;;;;;4976791;28;20069;-48
2022/07/26 03:34:20;;;;;;;10.82;2.90;;;17.20;99.90;;;;;;4999340;28;20393;-46
2022/07/26 03:36:46;;;;;;;7.20;2.75;;;17.20;99.90;;;;;;5001113;28;20056;-50
2022/07/26 03:39:12;;;;;;;6.20;2.35;;;17.10;99.90;;;;;;4982958;28;20061;-46
2022/07/26 03:41:37;;;;;;;9.07;2.50;;;17.10;99.90;;;;;;4996881;28;20050;-47
2022/07/26 03:44:03;;;;;;;5.72;2.50;;;17.10;99.90;;;;;;4994422;28;20072;-48
2022/07/26 03:46:29;;;;;;;6.78;2.45;;;17.00;99.90;;;;;;4983365;28;20554;-51
2022/07/26 03:48:56;;;;;;;9.35;2.30;;;16.90;99.90;;;;;;4984245;28;20050;-48
2022/07/26 03:51:22;;;;;;;7.63;2.33;;;16.90;99.90;;;;;;5003156;28;20113;-50
2022/07/26 03:53:48;;;;;;;9.38;2.60;;;16.80;99.90;;;;;;5000112;28;20421;-51
2022/07/26 03:56:33;;;;;;;6.78;2.30;;;16.80;99.90;;;;;;5001103;28;20082;-47
2022/07/26 03:59:07;;;;;;;8.27;2.30;;;16.80;99.90;;;;;;4987497;28;20117;-48
2022/07/26 04:01:34;;;;;;;7.95;2.65;;;16.70;99.90;;;;;;4994885;28;20058;-46
2022/07/26 04:04:00;;;;;;;8.20;2.30;;;16.70;99.90;;;;;;4999991;28;20046;-49
2022/07/26 04:06:26;;;;;;;7.18;2.53;;;16.70;99.90;;;;;;5001315;28;20159;-48
2022/07/26 04:08:52;;;;;;;9.93;2.33;;;16.80;99.90;;;;;;4977957;28;20133;-46
2022/07/26 04:11:18;;;;;;;8.27;2.05;;;16.80;99.90;;;;;;5005668;28;20103;-47
2022/07/26 04:13:44;;;;;;;5.85;1.90;;;16.80;99.90;;;;;;4997904;28;20436;-46
2022/07/26 04:16:10;;;;;;;6.30;2.45;;;16.80;99.90;;;;;;5000709;28;20494;-47
2022/07/26 04:18:36;;;;;;;6.10;1.90;;;16.90;99.90;;;;;;4986483;28;20058;-47
2022/07/26 04:21:01;;;;;;;7.00;2.17;;;16.90;99.90;;;;;;5002663;28;20112;-47
2022/07/26 04:23:27;;;;;;;8.43;2.35;;;16.90;99.90;;;;;;4983076;28;20058;-48
2022/07/26 04:25:53;;;;;;;6.32;1.70;;;16.90;99.90;;;;;;5003357;28;20050;-47
2022/07/26 04:28:19;;;;;;;8.15;2.33;;;16.90;99.90;;;;;;5004181;28;20073;-50
2022/07/26 04:30:44;;;;;;;9.57;1.70;;;17.00;99.90;;;;;;4967531;28;20091;-47
2022/07/26 04:33:10;;;;;;;7.38;1.90;;;16.90;99.90;;;;;;4959636;28;20078;-47
2022/07/26 04:35:36;;;;;;;6.10;1.70;;;16.90;99.90;;;;;;4964888;28;20051;-48
2022/07/26 04:38:02;;;;;;;8.57;1.90;;;16.90;99.90;;;;;;4964918;28;20051;-47
2022/07/26 04:40:32;;;;;;;10.40;1.75;;;16.80;99.90;;;;;;4963624;28;20114;-49
2022/07/26 04:42:59;;;;;;;5.80;1.58;;;16.90;99.90;;;;;;4962109;28;20561;-44
2022/07/26 04:45:24;;;;;;;5.13;1.60;;;16.80;99.90;;;;;;4964537;28;20051;-46
2022/07/26 04:47:50;;;;;;;7.13;1.52;;;16.80;99.90;;;;;;4964457;28;20098;-48
2022/07/26 04:50:18;;;;;;;7.50;1.63;;;16.70;99.90;;;;;;4963821;28;20042;-46
2022/07/26 04:52:44;;;;;;;8.90;1.40;;;16.80;99.90;;;;;;4945721;28;20086;-48
2022/07/26 04:55:10;;;;;;;5.85;1.70;;;16.70;99.90;;;;;;4957203;28;20141;-48
2022/07/26 04:57:36;;;;;;;6.60;1.75;;;16.70;99.90;;;;;;4964121;28;20047;-49
2022/07/26 05:00:04;;;;;;;9.73;1.52;;;16.70;99.90;;;;;;4961832;28;20058;-47
2022/07/26 05:02:30;;;;;;;7.90;1.60;;;16.70;99.90;;;;;;4964359;28;20516;-49
2022/07/26 05:04:56;;;;;;;6.07;1.50;;;16.70;99.90;;;;;;4970739;28;20051;-46
2022/07/26 05:07:21;;;;;;;6.25;1.27;;;16.70;99.90;;;;;;4964385;28;20573;-48
2022/07/26 05:09:47;;;;;;;10.07;1.88;;;16.70;99.90;;;;;;4970150;28;20441;-47
2022/07/26 05:12:13;;;;;;;5.53;1.15;;;16.60;99.90;;;;;;4969726;28;20402;-50
2022/07/26 05:14:39;;;;;;;7.45;1.52;;;16.70;99.90;;;;;;4975084;28;20051;-50
2022/07/26 05:17:05;;;;;;;4.93;1.50;;;16.60;99.90;;;;;;4961237;28;20429;-48
2022/07/26 05:19:30;;;;;;;6.75;1.48;;;16.60;99.90;;;;;;4983708;28;20063;-49
2022/07/26 05:21:56;;;;;;;5.53;1.50;;;16.70;99.90;;;;;;4965005;28;20116;-47
2022/07/26 05:24:22;;;;;;;9.38;1.55;;;16.70;99.90;;;;;;4982783;28;20484;-48
2022/07/26 05:26:51;;;;;;;8.73;2.38;;;16.70;99.90;;;;;;4964787;28;20309;-48
2022/07/26 05:29:16;;;;;;;6.47;1.55;;;16.80;99.90;;;;;;4967170;28;20054;-48
2022/07/26 05:31:42;;;;;;;6.43;1.35;;;16.80;99.90;;;;;;4976534;28;20060;-45
2022/07/26 05:34:08;;;;;;;9.32;2.00;;;16.80;99.90;;;;;;5001942;28;20046;-48
2022/07/26 05:36:34;;;;;;;4.18;1.30;;;16.80;99.90;;;;;;4991301;28;20046;-48
2022/07/26 05:39:00;;;;;;;7.40;2.45;;;16.80;99.90;;;;;;4982815;28;20081;-48
2022/07/26 05:41:25;;;;;;;7.05;1.65;;;16.90;99.90;;;;;;4982134;28;20668;-49
2022/07/26 05:43:51;;;;;;;6.03;1.40;;;16.80;99.90;;;;;;4982311;28;20057;-50
2022/07/26 05:46:17;;;;;;;9.40;1.92;;;16.90;99.90;;;;;;4981454;28;20137;-47
2022/07/26 05:48:43;;;;;;;4.85;1.60;;;16.90;99.90;;;;;;4955286;28;20061;-47
2022/07/26 05:51:09;;;;;;;7.55;1.35;;;16.90;99.90;;;;;;4982220;28;20599;-44
2022/07/26 05:53:35;;;;;;;7.63;1.70;;;16.80;99.90;;;;;;4964237;28;20058;-49
2022/07/26 05:56:01;;;;;;;9.13;1.80;;;16.90;99.90;;;;;;4982284;28;20038;-46
2022/07/26 05:58:27;;;;;;;6.20;1.80;;;16.90;99.90;;;;;;4963040;28;20046;-47
2022/07/26 06:00:52;;;;;;;9.02;1.90;;;16.90;99.90;;;;;;4994534;28;20050;-44
2022/07/26 06:03:21;;;;;;;12.75;2.25;;;16.90;99.90;;;;;;5001486;28;20105;-46
2022/07/26 06:05:53;;;;;;;7.70;1.65;;;16.90;99.90;;;;;;4985614;28;20457;-45
2022/07/26 06:08:19;;;;;;;8.23;1.70;;;16.90;99.90;;;;;;4975727;28;20050;-48
2022/07/26 06:10:46;;;;;;;7.00;2.10;;;16.80;99.90;;;;;;4976093;28;20058;-49
2022/07/26 06:13:12;;;;;;;6.22;1.10;;;16.80;99.90;;;;;;4983988;28;20379;-50
2022/07/26 06:15:38;;;;;;;5.78;1.33;;;16.80;99.90;;;;;;5002063;28;20053;-44
2022/07/26 06:18:05;;;;;;;8.13;1.33;;;16.80;99.90;;;;;;4984478;28;20047;-47
2022/07/26 06:20:31;;;;;;;6.22;1.10;;;16.80;99.90;;;;;;4982191;28;20400;-50
2022/07/26 06:22:57;;;;;;;6.10;1.17;;;16.80;99.90;;;;;;4982014;28;20084;-50
2022/07/26 06:25:24;;;;;;;5.75;1.30;;;16.90;99.90;;;;;;4982628;28;20050;-48
2022/07/26 06:27:50;;;;;;;5.07;1.17;;;17.00;99.90;;;;;;4966160;28;20058;-49
2022/07/26 06:30:16;;;;;;;3.92;1.00;;;17.00;99.90;;;;;;4972484;28;20600;-50
2022/07/26 06:32:43;;;;;;;7.20;1.45;;;17.00;99.90;;;;;;5018424;28;20049;-48
2022/07/26 06:35:09;;;;;;;6.93;1.63;;;17.10;99.90;;;;;;5000129;28;20085;-50
2022/07/26 06:37:40;;;;;;;8.95;1.73;;;17.10;99.90;;;;;;5014959;28;20053;-48
2022/07/26 06:40:07;;;;;;;15.10;1.80;;;17.10;99.90;;;;;;5013238;28;20053;-48
2022/07/26 06:42:34;;;;;;;7.88;1.42;;;17.20;99.90;;;;;;5021154;28;20519;-46
2022/07/26 06:44:59;;;;;;;4.63;1.30;;;17.20;99.90;;;;;;5004295;28;20163;-47
2022/07/26 06:47:26;;;;;;;9.45;1.85;;;17.20;99.90;;;;;;5001030;28;20050;-47
2022/07/26 06:49:52;;;;;;;4.93;1.42;;;17.20;99.90;;;;;;4982894;28;20061;-48
2022/07/26 06:52:18;;;;;;;7.80;1.38;;;17.20;99.90;;;;;;5000801;28;20061;-47
2022/07/26 06:54:44;;;;;;;8.25;1.30;;;17.00;99.90;;;;;;4997101;28;20049;-47
2022/07/26 06:57:10;;;;;;;6.80;1.75;;;17.10;99.90;;;;;;5005661;28;20136;-47
2022/07/26 06:59:35;;;;;;;7.03;1.67;;;17.20;99.90;;;;;;5001831;28;20213;-45
2022/07/26 07:02:02;;;;;;;9.10;2.08;;;17.30;99.90;;;;;;5003742;28;20132;-48
2022/07/26 07:04:28;;;;;;;7.07;1.67;;;17.50;99.90;;;;;;5003810;28;20483;-47
2022/07/26 07:06:54;;;;;;;8.95;1.75;;;17.70;99.90;;;;;;5000672;28;20097;-49
2022/07/26 07:09:20;;;;;;;8.88;1.58;;;17.80;99.90;;;;;;4977406;28;20571;-50
2022/07/26 07:11:48;;;;;;;4.63;1.23;;;17.90;99.90;;;;;;5000938;28;20053;-47
2022/07/26 07:14:14;;;;;;;8.07;2.45;;;18.00;99.90;;;;;;5000705;28;20053;-45
2022/07/26 07:16:39;;;;;;;7.20;1.75;;;18.10;99.90;;;;;;4981885;28;20386;-49
2022/07/26 07:19:05;;;;;;;7.28;1.73;;;18.00;99.90;;;;;;4970489;28;20048;-48
2022/07/26 07:21:32;;;;;;;8.10;1.52;;;18.20;99.90;;;;;;5002418;28;20089;-46
2022/07/26 07:23:58;;;;;;;8.05;1.83;;;18.30;99.90;;;;;;5000719;28;20104;-48
2022/07/26 07:26:24;;;;;;;6.20;2.40;;;18.50;99.90;;;;;;5000404;28;20053;-47
2022/07/26 07:28:50;;;;;;;6.85;1.40;;;18.80;99.90;;;;;;4999134;28;20047;-48
2022/07/26 07:31:17;;;;;;;4.93;1.50;;;19.00;99.90;;;;;;5002207;28;20060;-46
2022/07/26 07:33:42;;;;;;;5.28;1.40;;;19.30;99.90;;;;;;5001543;28;20070;-47
2022/07/26 07:36:08;;;;;;;7.07;1.75;;;19.60;99.90;;;;;;4987429;28;20050;-46
2022/07/26 07:38:34;;;;;;;8.25;1.60;;;19.90;99.90;;;;;;4996915;28;20132;-48
2022/07/26 07:41:00;;;;;;;7.32;2.00;;;19.80;99.90;;;;;;5000372;28;20057;-48
2022/07/26 07:43:25;;;;;;;10.00;1.80;;;19.50;99.90;;;;;;5001362;28;20092;-47
2022/07/26 07:45:51;;;;;;;6.63;2.00;;;19.20;99.90;;;;;;5003660;28;20056;-48
2022/07/26 07:48:17;;;;;;;5.70;1.80;;;19.00;99.90;;;;;;4987968;28;20232;-49
2022/07/26 07:50:42;;;;;;;8.25;2.22;;;18.70;99.90;;;;;;4985880;28;20460;-49
2022/07/26 07:53:08;;;;;;;6.32;1.35;;;18.60;99.90;;;;;;5006769;28;20102;-47
2022/07/26 07:55:34;;;;;;;7.97;1.60;;;18.60;99.90;;;;;;5006246;28;20593;-51
2022/07/26 07:58:00;;;;;;;9.65;1.90;;;18.70;99.90;;;;;;5001345;28;20045;-48
2022/07/26 08:00:26;;;;;;;7.20;1.20;;;18.80;99.90;;;;;;5019109;28;20057;-47
2022/07/26 08:02:52;;;;;;;7.30;1.95;;;19.00;99.90;;;;;;5000470;28;20085;-47
2022/07/26 08:05:18;;;;;;;3.50;1.20;;;19.20;99.90;;;;;;4990349;28;20679;-50
2022/07/26 08:07:43;;;;;;;6.18;1.50;;;19.40;99.90;;;;;;5004537;28;20472;-49
2022/07/26 08:10:09;;;;;;;7.28;1.70;;;19.70;99.90;;;;;;5018759;28;20128;-45
2022/07/26 08:12:35;;;;;;;4.85;1.50;;;19.80;99.90;;;;;;5016742;28;20038;-49
2022/07/26 08:15:02;;;;;;;8.57;1.70;;;19.80;99.90;;;;;;5024655;28;20484;-50
2022/07/26 08:17:29;;;;;;;6.53;1.60;;;19.90;99.90;;;;;;5007454;28;20513;-47
2022/07/26 08:19:55;;;;;;;7.15;1.73;;;20.00;99.90;;;;;;4989366;28;20057;-46
2022/07/26 08:22:21;;;;;;;9.25;2.10;;;20.20;99.90;;;;;;5019464;28;20045;-47
2022/07/26 08:24:46;;;;;;;8.48;1.83;;;20.30;99.90;;;;;;5011623;28;20053;-49
2022/07/26 08:27:13;;;;;;;8.02;2.00;;;20.40;99.90;;;;;;5024884;28;20492;-48
2022/07/26 08:29:38;;;;;;;8.45;1.67;;;20.30;99.90;;;;;;5001238;28;20572;-45
2022/07/26 08:32:06;;;;;;;5.57;1.70;;;20.20;99.90;;;;;;4984115;28;20189;-47
2022/07/26 08:34:31;;;;;;;6.53;1.80;;;20.20;99.90;;;;;;4966009;28;20050;-48
2022/07/26 08:36:57;;;;;;;9.52;2.10;;;20.50;99.90;;;;;;4983974;28;20100;-48
2022/07/26 08:39:23;;;;;;;7.95;1.85;;;20.60;99.90;;;;;;4982520;28;20512;-48
2022/07/26 08:41:49;;;;;;;8.95;2.17;;;20.50;99.90;;;;;;4984143;28;20066;-46
2022/07/26 08:44:14;;;;;;;6.90;2.20;;;20.50;99.90;;;;;;4979468;28;20569;-49
2022/07/26 08:46:41;;;;;;;7.57;1.83;;;20.30;99.90;;;;;;4983514;28;20528;-51
2022/07/26 08:49:09;;;;;;;10.77;2.00;;;20.20;99.90;;;;;;4984451;28;20085;-46
2022/07/26 08:51:39;;;;;;;6.85;2.10;;;20.20;99.90;;;;;;4982180;28;20042;-47
2022/07/26 08:54:05;;;;;;;7.95;2.38;;;20.10;99.90;;;;;;4983135;28;20409;-50
2022/07/26 08:56:36;;;;;;;7.53;1.98;;;20.00;99.90;;;;;;4983253;28;20469;-50
2022/07/26 08:59:20;;;;;;;10.88;2.03;;;20.10;99.90;;;;;;4982823;28;20533;-48
2022/07/26 09:01:57;;;;;;;4.90;1.55;;;20.30;99.90;;;;;;4966529;28;20501;-49
2022/07/26 09:04:25;;;;;;;9.88;2.15;;;20.90;99.90;;;;;;4984058;28;20061;-51
2022/07/26 09:07:00;;;;;;;5.25;1.73;;;21.40;99.90;;;;;;4984257;28;20901;-46
2022/07/26 09:09:27;;;;;;;7.25;1.85;;;21.90;99.90;;;;;;4977612;28;20050;-49
2022/07/26 09:11:54;;;;;;;5.97;1.70;;;22.10;99.90;;;;;;4984410;28;20085;-48
2022/07/26 09:14:40;;;;;;;13.23;3.15;;;22.00;99.90;;;;;;4985908;28;20052;-53
2022/07/26 09:17:07;;;;;;;9.52;2.80;;;21.70;99.90;;;;;;4975832;28;20054;-49
2022/07/26 09:19:33;;;;;;;9.13;2.90;;;21.30;99.90;;;;;;4983571;28;20105;-47
2022/07/26 09:22:09;;;;;;;9.15;3.08;;;21.00;99.90;;;;;;4982955;28;20054;-47
2022/07/26 09:24:44;;;;;;;8.10;2.70;;;20.60;99.90;;;;;;4983186;28;20050;-47
2022/07/26 09:27:12;;;;;;;13.95;2.63;;;20.30;99.90;;;;;;4977646;28;20046;-47
2022/07/26 09:30:07;;;;;;;9.50;2.67;;;20.00;99.90;;;;;;4981927;28;20062;-48
2022/07/26 09:32:35;;;;;;;11.00;2.90;;;19.70;99.90;;;;;;4975322;28;20516;-43
2022/07/26 09:35:15;;;;;;;9.45;3.25;;;19.30;99.90;;;;;;4965546;28;20379;-46
2022/07/26 09:37:42;;;;;;;10.73;3.08;;;19.30;99.90;;;;;;4959014;28;20102;-47
2022/07/26 09:40:11;;;;;;;12.68;3.00;;;19.70;99.90;;;;;;4987536;28;20473;-48
2022/07/26 09:42:37;;;;;;;9.35;2.80;;;19.90;99.90;;;;;;4962729;28;20054;-48
2022/07/26 09:45:15;;;;;;;9.20;2.92;;;20.20;99.90;;;;;;4981901;28;20054;-46
2022/07/26 09:47:41;;;;;;;11.13;3.10;;;20.30;99.90;;;;;;4981666;28;20082;-48
2022/07/26 09:50:11;;;;;;;10.70;3.45;;;20.00;99.90;;;;;;4965747;28;20066;-49
2022/07/26 09:52:37;;;;;;;12.23;3.17;;;20.00;99.90;;;;;;4965370;28;20046;-51
2022/07/26 09:55:07;;;;;;;11.90;5.03;;;19.70;99.90;;;;;;4983144;28;20516;-48
2022/07/26 09:57:34;;;;;;;10.63;3.47;;;20.00;99.90;;;;;;4965547;28;20046;-50
2022/07/26 10:00:05;;;;;;;10.07;2.92;;;20.40;99.90;;;;;;4979163;28;20221;-47
2022/07/26 10:02:31;;;;;;;12.60;2.60;;;20.60;99.90;;;;;;4981827;28;20061;-49
2022/07/26 10:04:57;;;;;;;11.18;3.40;;;20.70;99.90;;;;;;4981345;28;20056;-49
2022/07/26 10:07:23;;;;;;;11.52;3.20;;;20.80;99.90;;;;;;4964794;28;20054;-49
2022/07/26 10:09:52;;;;;;;8.90;2.50;;;20.90;99.90;;;;;;4984158;28;20058;-48
2022/07/26 10:12:20;;;;;;;12.00;2.60;;;20.80;99.90;;;;;;4982130;28;20054;-51
2022/07/26 10:14:50;;;;;;;10.40;3.10;;;20.70;99.90;;;;;;4963568;28;20471;-47
2022/07/26 10:17:27;;;;;;;13.23;2.45;;;20.50;99.90;;;;;;4981620;28;20587;-48
2022/07/26 10:19:54;;;;;;;12.55;2.92;;;20.60;99.90;;;;;;4979088;28;20509;-49
2022/07/26 10:22:30;;;;;;;8.88;2.47;;;20.60;99.90;;;;;;4982558;28;20046;-50
2022/07/26 10:25:17;;;;;;;10.52;2.70;;;20.70;99.90;;;;;;4983145;28;20446;-47
2022/07/26 10:27:45;;;;;;;9.65;2.33;;;20.70;99.90;;;;;;4967146;28;20068;-51
2022/07/26 10:30:17;;;;;;;11.63;2.47;;;20.70;99.90;;;;;;4983007;28;20038;-49
2022/07/26 10:32:58;;;;;;;10.30;2.60;;;20.70;99.90;;;;;;4968481;28;20092;-48
2022/07/26 10:35:42;;;;;;;9.32;2.22;;;20.60;99.90;;;;;;4984861;28;20065;-50
2022/07/26 10:38:10;;;;;;;12.48;2.88;;;20.70;99.90;;;;;;4968949;28;20053;-49
2022/07/26 10:40:37;;;;;;;7.40;2.05;;;20.70;99.90;;;;;;4993952;28;20061;-49
2022/07/26 10:43:15;;;;;;;10.27;2.40;;;20.80;99.90;;;;;;4994472;28;20568;-48
2022/07/26 10:45:42;;;;;;;6.90;2.20;;;20.90;99.30;;;;;;4988013;28;20072;-49
2022/07/26 10:48:17;;;;;;;9.02;1.83;;;21.00;99.70;;;;;;5005081;28;20077;-49
2022/07/26 10:50:49;;;;;;;6.43;1.95;;;21.00;99.90;;;;;;4998722;28;20057;-48
2022/07/26 10:53:28;;;;;;;5.30;1.65;;;21.30;99.50;;;;;;4967637;28;20088;-48
2022/07/26 10:55:56;;;;;;;8.70;2.72;;;21.50;99.30;;;;;;4959051;28;20038;-45
2022/07/26 10:58:24;;;;;;;9.15;2.00;;;21.70;98.90;;;;;;4973347;28;20112;-49
2022/07/26 11:01:16;;;;;;;5.53;1.58;;;21.70;97.50;;;;;;4978074;28;20046;-47
2022/07/26 11:03:43;;;;;;;6.47;1.65;;;21.80;96.90;;;;;;4977095;28;20061;-50
2022/07/26 11:06:15;;;;;;;7.75;1.85;;;22.00;98.00;;;;;;4967150;28;20054;-49
2022/07/26 11:08:43;;;;;;;4.90;1.90;;;22.00;97.60;;;;;;4963974;28;20077;-49
2022/07/26 11:11:09;;;;;;;9.77;2.17;;;22.00;97.50;;;;;;4984632;28;20120;-51
2022/07/26 11:13:36;;;;;;;5.03;1.88;;;22.00;97.10;;;;;;4992893;28;20081;-48
2022/07/26 11:16:05;;;;;;;7.00;1.83;;;22.10;97.70;;;;;;4985086;28;20054;-49
2022/07/26 11:18:36;;;;;;;7.15;2.03;;;22.00;96.50;;;;;;4985145;28;20066;-48
2022/07/26 11:21:14;;;;;;;14.00;2.42;;;22.00;97.60;;;;;;4985368;28;20065;-51
2022/07/26 11:23:45;;;;;;;9.77;1.90;;;22.00;96.60;;;;;;4983784;28;20102;-46
2022/07/26 11:26:19;;;;;;;6.47;2.10;;;21.80;97.50;;;;;;4986240;28;20111;-48
2022/07/26 11:28:59;;;;;;;8.35;2.28;;;21.70;97.50;;;;;;4971348;28;20050;-47
2022/07/26 11:31:36;;;;;;;8.75;1.92;;;21.60;97.60;;;;;;4982555;28;20046;-48
2022/07/26 11:34:03;;;;;;;7.18;1.48;;;21.60;97.40;;;;;;5007149;28;20042;-49
2022/07/26 11:36:40;;;;;;;7.38;2.00;;;21.60;97.40;;;;;;4986586;28;20414;-49
2022/07/26 11:39:09;;;;;;;7.53;1.70;;;21.80;97.00;;;;;;4954218;28;20544;-51
2022/07/26 11:41:36;;;;;;;8.77;2.33;;;21.80;97.30;;;;;;4954055;28;20540;-49
2022/07/26 11:44:03;;;;;;;9.45;2.05;;;21.90;96.90;;;;;;4967468;28;20101;-49
2022/07/26 11:46:37;;;;;;;7.93;2.03;;;21.90;96.60;;;;;;5001409;28;20876;-46
2022/07/26 11:49:12;;;;;;;8.48;1.98;;;21.70;96.20;;;;;;5027733;28;20136;-49
2022/07/26 11:51:39;;;;;;;6.25;2.00;;;21.60;95.80;;;;;;5009166;28;20053;-46
2022/07/26 11:54:05;;;;;;;7.03;2.10;;;21.70;96.60;;;;;;5025614;28;20400;-49
2022/07/26 11:56:31;;;;;;;7.18;1.92;;;21.80;96.50;;;;;;5006644;28;20712;-53
2022/07/26 11:58:58;;;;;;;8.23;1.75;;;22.00;96.90;;;;;;4990813;28;20046;-50
2022/07/26 12:01:26;;;;;;;7.53;2.53;;;21.90;96.80;;;;;;5008140;28;20065;-48
2022/07/26 12:03:54;;;;;;;8.43;1.98;;;22.10;97.10;;;;;;4989973;28;20113;-52
2022/07/26 12:06:23;;;;;;;8.10;1.65;;;22.00;97.20;;;;;;4976620;28;20050;-48
2022/07/26 12:08:51;;;;;;;5.18;1.70;;;22.10;96.90;;;;;;4985836;28;20081;-51
2022/07/26 12:11:18;;;;;;;5.22;1.55;;;22.20;97.40;;;;;;4992172;28;20071;-47
2022/07/26 12:14:04;;;;;;;8.82;1.95;;;22.30;97.30;;;;;;4979737;28;20045;-48
2022/07/26 12:16:45;;;;;;;8.50;2.25;;;22.40;96.30;;;;;;5006495;28;20104;-50
2022/07/26 12:19:29;;;;;;;9.05;2.10;;;22.40;96.60;;;;;;5005655;28;20049;-49
2022/07/26 12:22:08;;;;;;;6.63;1.75;;;22.30;96.70;;;;;;5025890;28;20045;-50
2022/07/26 12:24:39;;;;;;;7.82;2.38;;;22.10;96.40;;;;;;5015703;28;20136;-45
2022/07/26 12:27:37;;;;;;;7.55;2.00;;;22.20;95.80;;;;;;5026018;28;20049;-48
2022/07/26 12:30:02;;;;;;;8.68;1.83;;;22.20;96.50;;;;;;4927450;29;20068;-48
2022/07/26 12:32:33;;;;;;;8.07;1.65;;;22.00;95.90;;;;;;4911307;29;20107;-49
2022/07/26 12:35:07;;;;;;;6.47;1.60;;;22.10;96.60;;;;;;4925373;29;20442;-47
2022/07/26 12:37:50;;;;;;;6.75;2.53;;;22.00;96.70;;;;;;4926695;29;20043;-47
2022/07/26 12:40:21;;;;;;;10.55;1.90;;;22.00;96.60;;;;;;4927192;29;20059;-49
2022/07/26 12:42:50;;;;;;;6.67;1.97;;;22.00;96.20;;;;;;4909615;29;20519;-48
2022/07/26 12:45:22;;;;;;;7.38;1.42;;;22.10;96.20;;;;;;4901686;29;21070;-49
2022/07/26 12:47:51;;;;;;;6.93;2.22;;;22.10;95.80;;;;;;4873363;29;20070;-50
2022/07/26 12:50:20;;;;;;;5.18;1.77;;;21.90;95.70;;;;;;4888317;29;20236;-50